createdAt,value
2023-04-16T00:00:41.905Z,995.52
2023-04-16T00:01:41.890Z,995.48
2023-04-16T00:02:41.910Z,995.45
2023-04-16T00:03:41.949Z,995.45
2023-04-16T00:04:41.749Z,995.47
2023-04-16T00:05:41.655Z,995.49
2023-04-16T00:06:41.550Z,995.53
2023-04-16T00:07:41.513Z,995.49
2023-04-16T00:08:41.428Z,995.52
2023-04-16T00:09:41.377Z,995.53
2023-04-16T00:10:41.272Z,995.51
2023-04-16T00:11:41.225Z,995.51
2023-04-16T00:12:41.196Z,995.50
2023-04-16T00:13:41.088Z,995.51
2023-04-16T00:14:41.052Z,995.51
2023-04-16T00:16:50.263Z,995.52
2023-04-16T00:17:51.228Z,995.56
2023-04-16T00:18:51.075Z,995.55
2023-04-16T00:19:50.981Z,995.52
2023-04-16T00:20:50.984Z,995.53
2023-04-16T00:21:50.904Z,995.55
2023-04-16T00:22:50.836Z,995.53
2023-04-16T00:23:50.742Z,995.54
2023-04-16T00:24:50.707Z,995.56
2023-04-16T00:25:50.661Z,995.53
2023-04-16T00:26:50.583Z,995.50
2023-04-16T00:27:50.809Z,995.50
2023-04-16T00:28:50.444Z,995.52
2023-04-16T00:29:50.366Z,995.50
2023-04-16T00:30:50.334Z,995.49
2023-04-16T00:31:50.226Z,995.49
2023-04-16T00:32:50.218Z,995.48
2023-04-16T00:33:50.178Z,995.49
2023-04-16T00:34:50.068Z,995.52
2023-04-16T00:35:50.006Z,995.52
2023-04-16T00:36:49.972Z,995.53
2023-04-16T00:37:49.846Z,995.54
2023-04-16T00:38:49.783Z,995.49
2023-04-16T00:39:50.057Z,995.54
2023-04-16T00:40:49.713Z,995.47
2023-04-16T00:41:49.625Z,995.54
2023-04-16T00:42:49.552Z,995.52
2023-04-16T00:43:49.489Z,995.53
2023-04-16T00:44:49.404Z,995.52
2023-04-16T00:45:49.352Z,995.50
2023-04-16T00:46:49.277Z,995.53
2023-04-16T00:47:49.254Z,995.53
2023-04-16T00:48:49.173Z,995.51
2023-04-16T00:49:49.113Z,995.50
2023-04-16T00:50:49.082Z,995.52
2023-04-16T00:52:06.471Z,995.54
2023-04-16T00:52:48.927Z,995.52
2023-04-16T00:53:48.865Z,995.56
2023-04-16T00:54:48.830Z,995.55
2023-04-16T00:55:48.712Z,995.51
2023-04-16T00:56:48.642Z,995.56
2023-04-16T00:57:48.612Z,995.60
2023-04-16T00:58:48.533Z,995.58
2023-04-16T00:59:48.475Z,995.53
2023-04-16T01:00:48.402Z,995.57
2023-04-16T01:01:48.394Z,995.58
2023-04-16T01:02:48.379Z,995.58
2023-04-16T01:04:23.818Z,995.57
2023-04-16T01:04:48.192Z,995.59
2023-04-16T01:05:48.095Z,995.58
2023-04-16T01:06:48.041Z,995.59
2023-04-16T01:07:47.964Z,995.61
2023-04-16T01:08:47.895Z,995.59
2023-04-16T01:09:47.862Z,995.64
2023-04-16T01:10:47.818Z,995.62
2023-04-16T01:11:47.689Z,995.64
2023-04-16T01:12:47.663Z,995.65
2023-04-16T01:13:47.615Z,995.61
2023-04-16T01:14:47.505Z,995.59
2023-04-16T01:15:47.548Z,995.59
2023-04-16T01:16:47.410Z,995.69
2023-04-16T01:17:47.407Z,995.66
2023-04-16T01:18:47.243Z,995.67
2023-04-16T01:19:47.182Z,995.72
2023-04-16T01:20:47.153Z,995.69
2023-04-16T01:21:47.112Z,995.74
2023-04-16T01:22:47.022Z,995.67
2023-04-16T01:23:46.930Z,995.71
2023-04-16T01:24:46.891Z,995.67
2023-04-16T01:25:46.838Z,995.71
2023-04-16T01:26:46.772Z,995.69
2023-04-16T01:27:46.691Z,995.67
2023-04-16T01:28:46.638Z,995.75
2023-04-16T01:29:46.578Z,995.74
2023-04-16T01:30:46.539Z,995.70
2023-04-16T01:31:46.532Z,995.74
2023-04-16T01:32:46.449Z,995.78
2023-04-16T01:33:46.370Z,995.75
2023-04-16T01:34:46.238Z,995.76
2023-04-16T01:35:46.176Z,995.77
2023-04-16T01:36:46.130Z,995.77
2023-04-16T01:37:46.046Z,995.79
2023-04-16T01:38:46.005Z,995.82
2023-04-16T01:39:45.962Z,995.81
2023-04-16T01:40:45.850Z,995.82
2023-04-16T01:41:45.791Z,995.78
2023-04-16T01:42:45.787Z,995.80
2023-04-16T01:43:45.691Z,995.76
2023-04-16T01:44:45.627Z,995.76
2023-04-16T01:46:02.899Z,995.74
2023-04-16T01:46:45.493Z,995.79
2023-04-16T01:47:45.452Z,995.76
2023-04-16T01:48:45.376Z,995.75
2023-04-16T01:49:45.297Z,995.78
2023-04-16T01:50:45.238Z,995.73
2023-04-16T01:51:45.201Z,995.72
2023-04-16T01:52:45.133Z,995.73
2023-04-16T01:53:45.052Z,995.74
2023-04-16T01:54:44.995Z,995.72
2023-04-16T01:55:44.958Z,995.74
2023-04-16T01:56:44.863Z,995.79
2023-04-16T01:57:44.804Z,995.72
2023-04-16T01:58:44.766Z,995.74
2023-04-16T01:59:44.675Z,995.72
2023-04-16T02:00:44.624Z,995.75
2023-04-16T02:01:44.620Z,995.78
2023-04-16T02:02:44.659Z,995.72
2023-04-16T02:04:19.387Z,995.76
2023-04-16T02:04:44.394Z,995.80
2023-04-16T02:05:44.292Z,995.80
2023-04-16T02:06:44.199Z,995.81
2023-04-16T02:07:44.146Z,995.79
2023-04-16T02:08:44.109Z,995.82
2023-04-16T02:10:18.964Z,995.78
2023-04-16T02:10:43.976Z,995.78
2023-04-16T02:11:43.911Z,995.81
2023-04-16T02:12:43.866Z,995.77
2023-04-16T02:13:43.813Z,995.81
2023-04-16T02:14:43.748Z,995.79
2023-04-16T02:15:43.645Z,995.75
2023-04-16T02:16:43.627Z,995.79
2023-04-16T02:17:43.561Z,995.83
2023-04-16T02:18:43.472Z,995.80
2023-04-16T02:19:43.397Z,995.80
2023-04-16T02:20:43.342Z,995.81
2023-04-16T02:21:43.327Z,995.86
2023-04-16T02:22:43.208Z,995.85
2023-04-16T02:23:43.155Z,995.87
2023-04-16T02:24:43.114Z,995.86
2023-04-16T02:25:43.046Z,995.90
2023-04-16T02:26:42.957Z,995.86
2023-04-16T02:27:42.878Z,995.86
2023-04-16T02:28:42.840Z,995.87
2023-04-16T02:29:42.738Z,995.88
2023-04-16T02:30:42.715Z,995.81
2023-04-16T02:31:42.661Z,995.86
2023-04-16T02:32:42.589Z,995.90
2023-04-16T02:34:17.576Z,995.88
2023-04-16T02:34:42.453Z,995.89
2023-04-16T02:35:42.367Z,995.86
2023-04-16T02:36:42.330Z,995.90
2023-04-16T02:37:42.257Z,995.83
2023-04-16T02:38:42.224Z,995.84
2023-04-16T02:39:59.510Z,995.88
2023-04-16T02:40:42.102Z,995.86
2023-04-16T02:41:42.028Z,995.92
2023-04-16T02:42:41.923Z,995.89
2023-04-16T02:43:41.851Z,995.89
2023-04-16T02:44:41.865Z,995.87
2023-04-16T02:45:41.796Z,995.85
2023-04-16T02:46:41.718Z,995.90
2023-04-16T02:47:41.647Z,995.89
2023-04-16T02:48:41.563Z,995.89
2023-04-16T02:49:41.495Z,995.90
2023-04-16T02:50:41.472Z,995.89
2023-04-16T02:51:41.370Z,995.90
2023-04-16T02:52:41.304Z,995.89
2023-04-16T02:53:41.225Z,995.92
2023-04-16T02:54:41.192Z,995.94
2023-04-16T02:55:41.118Z,995.90
2023-04-16T02:56:41.026Z,995.91
2023-04-16T02:57:58.406Z,995.90
2023-04-16T02:58:40.895Z,995.93
2023-04-16T02:59:40.896Z,995.93
2023-04-16T03:00:40.797Z,995.93
2023-04-16T03:01:40.786Z,995.94
2023-04-16T03:02:40.786Z,995.98
2023-04-16T03:03:40.627Z,995.98
2023-04-16T03:04:40.624Z,995.99
2023-04-16T03:05:40.614Z,995.96
2023-04-16T03:06:40.396Z,995.99
2023-04-16T03:07:40.327Z,996.01
2023-04-16T03:08:40.291Z,995.98
2023-04-16T03:09:40.279Z,995.98
2023-04-16T03:10:40.164Z,996.01
2023-04-16T03:11:40.101Z,995.99
2023-04-16T03:12:40.067Z,996.01
2023-04-16T03:13:39.999Z,996.05
2023-04-16T03:14:39.915Z,996.01
2023-04-16T03:15:40.141Z,996.03
2023-04-16T03:16:39.779Z,996.00
2023-04-16T03:17:39.788Z,996.04
2023-04-16T03:18:39.682Z,996.01
2023-04-16T03:19:39.618Z,996.00
2023-04-16T03:20:39.537Z,996.03
2023-04-16T03:21:39.503Z,996.04
2023-04-16T03:22:39.390Z,996.04
2023-04-16T03:23:39.373Z,996.09
2023-04-16T03:24:39.277Z,996.07
2023-04-16T03:25:39.188Z,996.07
2023-04-16T03:26:39.147Z,996.06
2023-04-16T03:27:39.130Z,996.08
2023-04-16T03:28:39.056Z,996.02
2023-04-16T03:29:38.961Z,996.04
2023-04-16T03:30:38.895Z,996.05
2023-04-16T03:31:38.889Z,996.06
2023-04-16T03:32:38.824Z,996.01
2023-04-16T03:33:38.745Z,996.02
2023-04-16T03:34:38.622Z,996.05
2023-04-16T03:35:38.578Z,996.05
2023-04-16T03:36:38.515Z,996.04
2023-04-16T03:37:38.458Z,996.00
2023-04-16T03:38:38.415Z,996.00
2023-04-16T03:39:38.363Z,996.02
2023-04-16T03:40:38.263Z,996.05
2023-04-16T03:41:38.196Z,996.03
2023-04-16T03:42:38.170Z,996.03
2023-04-16T03:43:38.157Z,996.01
2023-04-16T03:44:38.009Z,996.07
2023-04-16T03:45:37.922Z,996.02
2023-04-16T03:46:38.002Z,996.05
2023-04-16T03:47:37.866Z,996.05
2023-04-16T03:48:37.750Z,996.06
2023-04-16T03:49:37.695Z,996.10
2023-04-16T03:50:37.627Z,996.11
2023-04-16T03:52:47.187Z,996.10
2023-04-16T03:53:47.721Z,996.10
2023-04-16T03:54:47.630Z,996.12
2023-04-16T03:55:47.622Z,996.11
2023-04-16T03:56:47.542Z,996.12
2023-04-16T03:57:47.506Z,996.15
2023-04-16T03:58:47.448Z,996.13
2023-04-16T03:59:47.323Z,996.14
2023-04-16T04:00:47.282Z,996.14
2023-04-16T04:01:47.286Z,996.16
2023-04-16T04:02:47.272Z,996.16
2023-04-16T04:03:47.281Z,996.16
2023-04-16T04:04:47.180Z,996.19
2023-04-16T04:05:46.992Z,996.18
2023-04-16T04:06:46.898Z,996.17
2023-04-16T04:07:46.838Z,996.15
2023-04-16T04:08:46.800Z,996.22
2023-04-16T04:09:46.744Z,996.21
2023-04-16T04:11:21.249Z,996.18
2023-04-16T04:11:46.538Z,996.18
2023-04-16T04:12:46.514Z,996.19
2023-04-16T04:13:46.414Z,996.16
2023-04-16T04:14:46.358Z,996.18
2023-04-16T04:15:46.304Z,996.18
2023-04-16T04:16:46.289Z,996.16
2023-04-16T04:17:46.224Z,996.20
2023-04-16T04:18:46.122Z,996.18
2023-04-16T04:20:00.028Z,996.20
2023-04-16T04:20:45.993Z,996.27
2023-04-16T04:21:45.920Z,996.26
2023-04-16T04:22:45.836Z,996.26
2023-04-16T04:23:45.770Z,996.26
2023-04-16T04:24:45.683Z,996.28
2023-04-16T04:25:45.685Z,996.31
2023-04-16T04:26:45.616Z,996.30
2023-04-16T04:27:45.505Z,996.31
2023-04-16T04:28:45.470Z,996.33
2023-04-16T04:29:45.360Z,996.30
2023-04-16T04:30:45.329Z,996.33
2023-04-16T04:31:45.338Z,996.31
2023-04-16T04:32:45.212Z,996.33
2023-04-16T04:33:45.142Z,996.32
2023-04-16T04:34:45.112Z,996.36
2023-04-16T04:35:45.005Z,996.36
2023-04-16T04:36:44.946Z,996.40
2023-04-16T04:37:44.878Z,996.40
2023-04-16T04:38:44.837Z,996.37
2023-04-16T04:39:44.776Z,996.39
2023-04-16T04:40:44.700Z,996.42
2023-04-16T04:41:44.622Z,996.40
2023-04-16T04:42:44.547Z,996.40
2023-04-16T04:43:44.465Z,996.42
2023-04-16T04:44:44.430Z,996.41
2023-04-16T04:45:44.381Z,996.45
2023-04-16T04:47:18.992Z,996.42
2023-04-16T04:47:44.241Z,996.43
2023-04-16T04:48:44.181Z,996.45
2023-04-16T04:49:44.092Z,996.50
2023-04-16T04:50:44.041Z,996.46
2023-04-16T04:51:43.980Z,996.48
2023-04-16T04:52:43.981Z,996.51
2023-04-16T04:53:43.857Z,996.52
2023-04-16T04:54:43.814Z,996.49
2023-04-16T04:55:43.699Z,996.52
2023-04-16T04:56:43.686Z,996.53
2023-04-16T04:57:43.581Z,996.52
2023-04-16T04:58:43.548Z,996.56
2023-04-16T04:59:43.477Z,996.55
2023-04-16T05:00:43.496Z,996.51
2023-04-16T05:01:43.377Z,996.56
2023-04-16T05:02:43.480Z,996.54
2023-04-16T05:03:43.421Z,996.53
2023-04-16T05:04:43.209Z,996.54
2023-04-16T05:05:43.075Z,996.52
2023-04-16T05:06:43.019Z,996.56
2023-04-16T05:07:42.963Z,996.55
2023-04-16T05:08:42.928Z,996.57
2023-04-16T05:10:03.947Z,996.57
2023-04-16T05:10:42.749Z,996.64
2023-04-16T05:11:42.705Z,996.62
2023-04-16T05:12:42.625Z,996.66
2023-04-16T05:13:42.552Z,996.65
2023-04-16T05:14:42.518Z,996.65
2023-04-16T05:15:42.463Z,996.64
2023-04-16T05:16:42.452Z,996.66
2023-04-16T05:17:42.361Z,996.72
2023-04-16T05:18:42.263Z,996.67
2023-04-16T05:19:42.182Z,996.75
2023-04-16T05:20:42.144Z,996.73
2023-04-16T05:21:59.449Z,996.70
2023-04-16T05:22:42.009Z,996.76
2023-04-16T05:23:41.942Z,996.82
2023-04-16T05:24:41.925Z,996.81
2023-04-16T05:25:41.816Z,996.81
2023-04-16T05:26:41.748Z,996.82
2023-04-16T05:27:41.690Z,996.87
2023-04-16T05:28:41.656Z,996.88
2023-04-16T05:29:41.561Z,996.88
2023-04-16T05:30:41.538Z,996.89
2023-04-16T05:31:41.468Z,996.89
2023-04-16T05:32:41.449Z,996.93
2023-04-16T05:33:41.343Z,996.93
2023-04-16T05:34:41.212Z,996.90
2023-04-16T05:35:41.183Z,996.93
2023-04-16T05:36:41.087Z,996.95
2023-04-16T05:37:41.023Z,996.95
2023-04-16T05:38:41.016Z,996.95
2023-04-16T05:39:58.341Z,996.95
2023-04-16T05:40:40.874Z,996.94
2023-04-16T05:41:40.767Z,996.97
2023-04-16T05:42:40.733Z,996.96
2023-04-16T05:43:40.686Z,997.01
2023-04-16T05:44:40.577Z,996.99
2023-04-16T05:45:40.525Z,996.97
2023-04-16T05:46:40.564Z,997.00
2023-04-16T05:47:40.403Z,997.02
2023-04-16T05:48:40.352Z,997.02
2023-04-16T05:49:40.307Z,997.09
2023-04-16T05:50:40.249Z,997.10
2023-04-16T05:51:40.187Z,997.11
2023-04-16T05:52:40.098Z,997.11
2023-04-16T05:53:40.038Z,997.12
2023-04-16T05:54:39.998Z,997.15
2023-04-16T05:55:39.897Z,997.12
2023-04-16T05:56:39.858Z,997.11
2023-04-16T05:57:39.748Z,997.20
2023-04-16T05:58:39.681Z,997.17
2023-04-16T05:59:39.642Z,997.24
2023-04-16T06:00:39.549Z,997.20
2023-04-16T06:01:39.550Z,997.30
2023-04-16T06:02:39.623Z,997.30
2023-04-16T06:03:39.445Z,997.27
2023-04-16T06:04:39.360Z,997.23
2023-04-16T06:05:39.291Z,997.37
2023-04-16T06:06:39.173Z,997.35
2023-04-16T06:07:39.134Z,997.33
2023-04-16T06:08:39.073Z,997.39
2023-04-16T06:09:38.988Z,997.37
2023-04-16T06:10:38.920Z,997.34
2023-04-16T06:11:38.923Z,997.33
2023-04-16T06:12:38.819Z,997.38
2023-04-16T06:13:38.776Z,997.37
2023-04-16T06:14:38.694Z,997.34
2023-04-16T06:15:38.654Z,997.35
2023-04-16T06:16:38.580Z,997.36
2023-04-16T06:17:38.552Z,997.40
2023-04-16T06:18:38.468Z,997.40
2023-04-16T06:19:38.372Z,997.43
2023-04-16T06:20:38.316Z,997.38
2023-04-16T06:21:38.264Z,997.44
2023-04-16T06:22:38.187Z,997.40
2023-04-16T06:23:38.120Z,997.43
2023-04-16T06:24:38.093Z,997.43
2023-04-16T06:25:37.997Z,997.46
2023-04-16T06:26:37.903Z,997.43
2023-04-16T06:27:38.160Z,997.45
2023-04-16T06:28:37.803Z,997.43
2023-04-16T06:29:41.480Z,997.47
2023-04-16T06:30:37.711Z,997.47
2023-04-16T06:31:37.662Z,997.47
2023-04-16T06:32:37.599Z,997.49
2023-04-16T06:33:54.886Z,997.51
2023-04-16T06:34:37.437Z,997.52
2023-04-16T06:35:37.392Z,997.50
2023-04-16T06:36:37.337Z,997.52
2023-04-16T06:37:37.216Z,997.53
2023-04-16T06:38:37.157Z,997.54
2023-04-16T06:39:37.118Z,997.55
2023-04-16T06:40:37.055Z,997.51
2023-04-16T06:41:37.001Z,997.57
2023-04-16T06:42:36.947Z,997.59
2023-04-16T06:43:36.840Z,997.58
2023-04-16T06:44:36.794Z,997.56
2023-04-16T06:45:36.784Z,997.61
2023-04-16T06:46:36.735Z,997.62
2023-04-16T06:47:36.656Z,997.55
2023-04-16T06:48:36.554Z,997.58
2023-04-16T06:49:36.512Z,997.60
2023-04-16T06:50:36.411Z,997.65
2023-04-16T06:51:36.352Z,997.62
2023-04-16T06:52:36.327Z,997.63
2023-04-16T06:53:36.226Z,997.67
2023-04-16T06:54:36.154Z,997.66
2023-04-16T06:55:36.082Z,997.65
2023-04-16T06:56:36.064Z,997.70
2023-04-16T06:57:37.352Z,997.70
2023-04-16T06:58:35.910Z,997.69
2023-04-16T06:59:35.826Z,997.68
2023-04-16T07:00:35.793Z,997.75
2023-04-16T07:01:35.715Z,997.73
2023-04-16T07:02:35.834Z,997.68
2023-04-16T07:03:35.873Z,997.71
2023-04-16T07:04:35.503Z,997.76
2023-04-16T07:05:35.442Z,997.78
2023-04-16T07:06:35.409Z,997.79
2023-04-16T07:07:35.331Z,997.82
2023-04-16T07:08:35.275Z,997.82
2023-04-16T07:09:52.567Z,997.80
2023-04-16T07:10:35.153Z,997.83
2023-04-16T07:11:35.054Z,997.81
2023-04-16T07:12:35.015Z,997.83
2023-04-16T07:13:34.982Z,997.76
2023-04-16T07:14:34.891Z,997.85
2023-04-16T07:15:34.836Z,997.82
2023-04-16T07:16:34.832Z,997.86
2023-04-16T07:17:34.772Z,997.95
2023-04-16T07:18:34.612Z,997.92
2023-04-16T07:19:34.557Z,997.91
2023-04-16T07:20:34.544Z,997.95
2023-04-16T07:21:34.432Z,997.93
2023-04-16T07:22:34.417Z,997.96
2023-04-16T07:23:34.347Z,997.99
2023-04-16T07:24:34.254Z,998.04
2023-04-16T07:25:34.231Z,998.02
2023-04-16T07:26:34.137Z,998.01
2023-04-16T07:27:34.050Z,998.09
2023-04-16T07:28:34.012Z,998.01
2023-04-16T07:29:33.965Z,998.02
2023-04-16T07:30:33.877Z,998.14
2023-04-16T07:31:33.869Z,998.07
2023-04-16T07:32:33.770Z,998.08
2023-04-16T07:33:33.745Z,998.12
2023-04-16T07:34:33.624Z,998.17
2023-04-16T07:35:33.553Z,998.16
2023-04-16T07:36:33.494Z,998.16
2023-04-16T07:37:33.425Z,998.20
2023-04-16T07:38:33.378Z,998.19
2023-04-16T07:39:33.320Z,998.18
2023-04-16T07:40:33.211Z,998.23
2023-04-16T07:41:33.145Z,998.24
2023-04-16T07:42:33.113Z,998.24
2023-04-16T07:43:33.059Z,998.26
2023-04-16T07:44:32.979Z,998.29
2023-04-16T07:45:32.931Z,998.29
2023-04-16T07:46:45.705Z,998.32
2023-04-16T07:47:32.803Z,998.23
2023-04-16T07:48:32.766Z,998.27
2023-04-16T07:49:32.655Z,998.32
2023-04-16T07:50:32.605Z,998.29
2023-04-16T07:51:32.566Z,998.31
2023-04-16T07:52:32.509Z,998.37
2023-04-16T07:53:32.432Z,998.33
2023-04-16T07:54:32.328Z,998.33
2023-04-16T07:55:32.290Z,998.34
2023-04-16T07:56:32.191Z,998.35
2023-04-16T07:57:32.176Z,998.37
2023-04-16T07:58:32.099Z,998.41
2023-04-16T07:59:32.060Z,998.39
2023-04-16T08:00:31.969Z,998.42
2023-04-16T08:01:31.904Z,998.43
2023-04-16T08:02:31.844Z,998.43
2023-04-16T08:03:49.363Z,998.45
2023-04-16T08:04:31.903Z,998.45
2023-04-16T08:05:31.642Z,998.46
2023-04-16T08:06:31.611Z,998.47
2023-04-16T08:07:33.946Z,998.50
2023-04-16T08:08:31.488Z,998.48
2023-04-16T08:09:31.427Z,998.52
2023-04-16T08:10:31.362Z,998.53
2023-04-16T08:11:31.271Z,998.52
2023-04-16T08:12:31.183Z,998.50
2023-04-16T08:13:33.095Z,998.52
2023-04-16T08:14:31.052Z,998.49
2023-04-16T08:15:31.075Z,998.53
2023-04-16T08:16:30.961Z,998.60
2023-04-16T08:17:30.925Z,998.53
2023-04-16T08:18:30.851Z,998.59
2023-04-16T08:19:30.765Z,998.57
2023-04-16T08:20:30.677Z,998.67
2023-04-16T08:21:47.992Z,998.60
2023-04-16T08:22:30.554Z,998.59
2023-04-16T08:23:30.507Z,998.67
2023-04-16T08:24:30.420Z,998.66
2023-04-16T08:25:30.387Z,998.70
2023-04-16T08:26:30.340Z,998.72
2023-04-16T08:27:30.271Z,998.72
2023-04-16T08:28:30.191Z,998.72
2023-04-16T08:29:30.130Z,998.73
2023-04-16T08:30:30.063Z,998.77
2023-04-16T08:31:30.108Z,998.83
2023-04-16T08:32:30.002Z,998.77
2023-04-16T08:33:29.877Z,998.81
2023-04-16T08:34:29.777Z,998.86
2023-04-16T08:35:29.741Z,998.87
2023-04-16T08:36:29.713Z,998.89
2023-04-16T08:37:29.614Z,998.93
2023-04-16T08:38:29.553Z,998.93
2023-04-16T08:39:29.527Z,998.97
2023-04-16T08:40:29.461Z,998.93
2023-04-16T08:41:29.340Z,998.99
2023-04-16T08:42:29.300Z,999.04
2023-04-16T08:43:29.236Z,999.02
2023-04-16T08:44:29.171Z,999.02
2023-04-16T08:45:29.096Z,999.02
2023-04-16T08:46:29.117Z,999.00
2023-04-16T08:47:29.020Z,999.05
2023-04-16T08:48:28.924Z,999.06
2023-04-16T08:49:28.881Z,999.06
2023-04-16T08:50:28.788Z,999.09
2023-04-16T08:51:28.739Z,999.10
2023-04-16T08:52:28.636Z,999.13
2023-04-16T08:53:28.639Z,999.13
2023-04-16T08:54:28.513Z,999.16
2023-04-16T08:55:28.514Z,999.13
2023-04-16T08:56:28.446Z,999.17
2023-04-16T08:58:03.594Z,999.19
2023-04-16T08:58:28.258Z,999.19
2023-04-16T08:59:28.193Z,999.17
2023-04-16T09:00:28.135Z,999.16
2023-04-16T09:01:28.114Z,999.15
2023-04-16T09:02:28.193Z,999.24
2023-04-16T09:03:28.043Z,999.22
2023-04-16T09:04:27.968Z,999.22
2023-04-16T09:05:27.834Z,999.21
2023-04-16T09:06:27.815Z,999.22
2023-04-16T09:07:27.708Z,999.22
2023-04-16T09:08:27.625Z,999.21
2023-04-16T09:09:27.577Z,999.21
2023-04-16T09:10:27.530Z,999.17
2023-04-16T09:11:27.480Z,999.19
2023-04-16T09:12:27.420Z,999.22
2023-04-16T09:13:27.333Z,999.23
2023-04-16T09:14:27.254Z,999.25
2023-04-16T09:17:06.514Z,999.20
2023-04-16T09:18:07.394Z,999.27
2023-04-16T09:19:07.439Z,999.25
2023-04-16T09:20:07.287Z,999.26
2023-04-16T09:21:07.256Z,999.32
2023-04-16T09:22:07.199Z,999.31
2023-04-16T09:23:07.129Z,999.30
2023-04-16T09:24:07.042Z,999.33
2023-04-16T09:25:07.011Z,999.33
2023-04-16T09:26:06.883Z,999.34
2023-04-16T09:27:06.847Z,999.34
2023-04-16T09:28:06.798Z,999.38
2023-04-16T09:29:06.718Z,999.41
2023-04-16T09:30:06.681Z,999.40
2023-04-16T09:31:06.603Z,999.42
2023-04-16T09:32:06.613Z,999.45
2023-04-16T09:33:06.431Z,999.48
2023-04-16T09:34:06.449Z,999.45
2023-04-16T09:35:06.340Z,999.45
2023-04-16T09:36:06.248Z,999.43
2023-04-16T09:37:06.209Z,999.43
2023-04-16T09:38:06.153Z,999.43
2023-04-16T09:39:06.092Z,999.42
2023-04-16T09:40:06.068Z,999.45
2023-04-16T09:41:05.983Z,999.42
2023-04-16T09:42:05.919Z,999.44
2023-04-16T09:43:05.862Z,999.42
2023-04-16T09:44:05.765Z,999.43
2023-04-16T09:45:06.287Z,999.48
2023-04-16T09:46:08.222Z,999.44
2023-04-16T09:47:05.607Z,999.47
2023-04-16T09:48:05.533Z,999.49
2023-04-16T09:49:05.479Z,999.53
2023-04-16T09:50:05.370Z,999.52
2023-04-16T09:51:05.327Z,999.57
2023-04-16T09:52:22.629Z,999.56
2023-04-16T09:53:05.221Z,999.54
2023-04-16T09:54:05.140Z,999.54
2023-04-16T09:55:05.074Z,999.59
2023-04-16T09:56:04.990Z,999.57
2023-04-16T09:57:04.927Z,999.58
2023-04-16T09:58:22.220Z,999.56
2023-04-16T09:59:04.817Z,999.57
2023-04-16T10:00:04.795Z,999.61
2023-04-16T10:01:04.689Z,999.62
2023-04-16T10:02:15.334Z,999.63
2023-04-16T10:03:04.643Z,999.63
2023-04-16T10:04:04.608Z,999.61
2023-04-16T10:05:04.438Z,999.63
2023-04-16T10:06:04.420Z,999.65
2023-04-16T10:07:04.311Z,999.63
2023-04-16T10:08:04.244Z,999.67
2023-04-16T10:09:04.161Z,999.64
2023-04-16T10:10:04.139Z,999.65
2023-04-16T10:11:04.062Z,999.71
2023-04-16T10:12:03.959Z,999.68
2023-04-16T10:13:03.899Z,999.67
2023-04-16T10:14:03.887Z,999.70
2023-04-16T10:15:03.773Z,999.70
2023-04-16T10:16:03.747Z,999.72
2023-04-16T10:17:03.729Z,999.77
2023-04-16T10:18:03.706Z,999.75
2023-04-16T10:19:03.550Z,999.77
2023-04-16T10:20:03.480Z,999.76
2023-04-16T10:21:03.439Z,999.76
2023-04-16T10:22:03.376Z,999.76
2023-04-16T10:23:03.278Z,999.77
2023-04-16T10:24:03.235Z,999.82
2023-04-16T10:25:03.134Z,999.77
2023-04-16T10:26:03.114Z,999.78
2023-04-16T10:27:03.009Z,999.80
2023-04-16T10:29:12.366Z,999.83
2023-04-16T10:30:13.083Z,999.82
2023-04-16T10:31:13.086Z,999.83
2023-04-16T10:32:12.974Z,999.85
2023-04-16T10:33:12.913Z,999.86
2023-04-16T10:34:12.884Z,999.86
2023-04-16T10:35:12.763Z,999.86
2023-04-16T10:36:12.728Z,999.93
2023-04-16T10:37:12.646Z,999.90
2023-04-16T10:38:12.603Z,999.92
2023-04-16T10:39:14.705Z,999.87
2023-04-16T10:40:12.606Z,999.87
2023-04-16T10:41:12.382Z,999.88
2023-04-16T10:42:12.289Z,999.87
2023-04-16T10:43:12.279Z,999.96
2023-04-16T10:44:12.220Z,999.91
2023-04-16T10:45:12.131Z,999.90
2023-04-16T10:46:12.065Z,999.88
2023-04-16T10:47:11.999Z,999.95
2023-04-16T10:48:11.936Z,999.91
2023-04-16T10:49:11.909Z,999.92
2023-04-16T10:50:11.847Z,999.92
2023-04-16T10:51:11.745Z,999.93
2023-04-16T10:52:11.698Z,999.93
2023-04-16T10:53:11.649Z,999.93
2023-04-16T10:54:11.580Z,999.92
2023-04-16T10:55:11.474Z,999.95
2023-04-16T10:56:11.456Z,999.97
2023-04-16T10:57:11.340Z,999.95
2023-04-16T10:58:11.314Z,999.99
2023-04-16T10:59:11.429Z,999.99
2023-04-16T11:00:11.178Z,999.95
2023-04-16T11:01:11.111Z,1000.01
2023-04-16T11:02:11.134Z,1000.00
2023-04-16T11:03:11.079Z,999.93
2023-04-16T11:04:11.080Z,1000.00
2023-04-16T11:05:10.830Z,1000.00
2023-04-16T11:06:10.765Z,999.99
2023-04-16T11:07:10.703Z,1000.01
2023-04-16T11:08:10.670Z,1000.00
2023-04-16T11:09:10.831Z,999.96
2023-04-16T11:10:10.559Z,1000.04
2023-04-16T11:11:10.451Z,999.99
2023-04-16T11:12:10.415Z,999.98
2023-04-16T11:13:10.347Z,1000.00
2023-04-16T11:14:10.346Z,1000.02
2023-04-16T11:15:10.239Z,1000.05
2023-04-16T11:16:10.167Z,1000.02
2023-04-16T11:17:10.068Z,1000.06
2023-04-16T11:18:10.050Z,1000.05
2023-04-16T11:19:10.221Z,1000.08
2023-04-16T11:20:17.901Z,1000.06
2023-04-16T11:21:09.813Z,1000.07
2023-04-16T11:22:44.715Z,1000.07
2023-04-16T11:23:09.748Z,1000.06
2023-04-16T11:24:09.650Z,1000.05
2023-04-16T11:25:09.576Z,1000.05
2023-04-16T11:26:09.549Z,1000.05
2023-04-16T11:27:09.431Z,1000.03
2023-04-16T11:28:09.426Z,1000.07
2023-04-16T11:29:09.471Z,1000.09
2023-04-16T11:30:09.240Z,1000.10
2023-04-16T11:31:09.314Z,1000.09
2023-04-16T11:32:09.178Z,1000.05
2023-04-16T11:33:09.112Z,1000.08
2023-04-16T11:34:09.022Z,1000.05
2023-04-16T11:35:08.924Z,1000.08
2023-04-16T11:36:08.898Z,1000.12
2023-04-16T11:37:08.849Z,1000.11
2023-04-16T11:38:08.805Z,1000.12
2023-04-16T11:39:09.003Z,1000.08
2023-04-16T11:40:08.650Z,1000.10
2023-04-16T11:41:08.598Z,1000.13
2023-04-16T11:42:08.548Z,1000.11
2023-04-16T11:43:08.467Z,1000.13
2023-04-16T11:44:08.379Z,1000.15
2023-04-16T11:45:08.340Z,1000.14
2023-04-16T11:46:24.121Z,1000.15
2023-04-16T11:47:08.257Z,1000.11
2023-04-16T11:48:10.621Z,1000.14
2023-04-16T11:49:08.177Z,1000.15
2023-04-16T11:50:08.004Z,1000.13
2023-04-16T11:51:07.934Z,1000.09
2023-04-16T11:52:07.902Z,1000.14
2023-04-16T11:53:07.811Z,1000.14
2023-04-16T11:54:09.123Z,1000.17
2023-04-16T11:55:07.719Z,1000.17
2023-04-16T11:56:07.693Z,1000.20
2023-04-16T11:57:07.530Z,1000.13
2023-04-16T11:58:07.472Z,1000.17
2023-04-16T11:59:07.527Z,1000.17
2023-04-16T12:00:09.197Z,1000.18
2023-04-16T12:01:07.301Z,1000.16
2023-04-16T12:02:07.303Z,1000.18
2023-04-16T12:03:07.296Z,1000.24
2023-04-16T12:04:07.521Z,1000.23
2023-04-16T12:05:07.032Z,1000.19
2023-04-16T12:06:06.991Z,1000.23
2023-04-16T12:07:06.909Z,1000.21
2023-04-16T12:08:06.875Z,1000.26
2023-04-16T12:09:06.816Z,1000.27
2023-04-16T12:10:06.711Z,1000.25
2023-04-16T12:11:06.665Z,1000.28
2023-04-16T12:12:06.631Z,1000.26
2023-04-16T12:13:06.554Z,1000.25
2023-04-16T12:14:06.449Z,1000.24
2023-04-16T12:15:06.389Z,1000.22
2023-04-16T12:16:06.356Z,1000.28
2023-04-16T12:17:06.392Z,1000.22
2023-04-16T12:18:06.264Z,1000.26
2023-04-16T12:19:06.190Z,1000.25
2023-04-16T12:20:06.126Z,1000.21
2023-04-16T12:21:06.055Z,1000.24
2023-04-16T12:22:05.978Z,1000.21
2023-04-16T12:23:05.882Z,1000.24
2023-04-16T12:24:05.845Z,1000.26
2023-04-16T12:25:05.756Z,1000.26
2023-04-16T12:26:05.716Z,1000.25
2023-04-16T12:27:05.679Z,1000.24
2023-04-16T12:28:05.597Z,1000.23
2023-04-16T12:29:05.509Z,1000.25
2023-04-16T12:30:05.453Z,1000.22